Time;durP1;ratioP1;P1;durP2;ratioP2;P2;SDS_P1;SDS_P2;PMS_P1;PMS_P2;Temp;Humidity;BMP_temperature;BMP_pressure;BME280_temperature;BME280_humidity;BME280_pressure;Samples;Min_cycle;Max_cycle;Signal;HPM_P1;HPM_P2
2022/05/29 00:00:38;;;;;;;22.60;7.57;;;;;;;;;;5026155;28;20025;-71
2022/05/29 00:03:04;;;;;;;22.17;7.23;;;;;;;;;;5021915;28;20493;-71
2022/05/29 00:05:29;;;;;;;17.17;6.40;;;;;;;;;;5030096;28;20068;-71
2022/05/29 00:07:54;;;;;;;25.97;8.07;;;;;;;;;;5017551;28;20034;-71
2022/05/29 00:10:19;;;;;;;23.87;7.57;;;;;;;;;;5017408;28;20086;-71
2022/05/29 00:12:45;;;;;;;22.50;7.30;;;;;;;;;;5028473;28;20052;-71
2022/05/29 00:15:11;;;;;;;19.97;7.30;;;;;;;;;;5015979;28;20050;-71
2022/05/29 00:17:36;;;;;;;22.47;8.03;;;;;;;;;;5026736;28;20036;-71
2022/05/29 00:20:02;;;;;;;25.30;7.57;;;;;;;;;;5017231;28;20026;-71
2022/05/29 00:22:29;;;;;;;25.13;7.73;;;;;;;;;;5022518;28;20025;-71
2022/05/29 00:24:54;;;;;;;25.73;8.20;;;;;;;;;;5024533;28;20068;-71
2022/05/29 00:27:20;;;;;;;26.50;8.40;;;;;;;;;;5027754;28;20057;-71
2022/05/29 00:29:45;;;;;;;22.10;8.10;;;;;;;;;;5022857;28;20079;-71
2022/05/29 00:32:11;;;;;;;19.63;7.60;;;;;;;;;;5012967;28;20167;-71
2022/05/29 00:34:36;;;;;;;28.43;7.77;;;;;;;;;;5009601;28;21170;-71
2022/05/29 00:37:05;;;;;;;21.27;7.47;;;;;;;;;;5013239;28;20017;-71
2022/05/29 00:39:30;;;;;;;19.80;7.20;;;;;;;;;;5015693;28;20032;-71
2022/05/29 00:41:56;;;;;;;21.03;6.10;;;;;;;;;;5017768;28;20013;-71
2022/05/29 00:44:26;;;;;;;22.10;6.63;;;;;;;;;;5016010;28;20474;-71
2022/05/29 00:46:51;;;;;;;19.13;6.77;;;;;;;;;;5015271;28;20033;-71
2022/05/29 00:49:17;;;;;;;24.40;6.80;;;;;;;;;;5017625;28;20083;-71
2022/05/29 00:51:45;;;;;;;25.80;6.87;;;;;;;;;;5018448;28;20523;-71
2022/05/29 00:54:12;;;;;;;20.07;6.13;;;;;;;;;;5017438;28;20045;-71
2022/05/29 00:56:38;;;;;;;21.27;5.70;;;;;;;;;;5018079;28;21220;-71
2022/05/29 00:59:04;;;;;;;21.30;6.33;;;;;;;;;;5013928;28;20056;-71
2022/05/29 01:01:29;;;;;;;14.50;5.50;;;;;;;;;;5017731;28;20026;-71
2022/05/29 01:03:55;;;;;;;22.40;5.60;;;;;;;;;;5015672;28;20014;-71
2022/05/29 01:06:20;;;;;;;21.37;5.87;;;;;;;;;;5002715;28;20091;-71
2022/05/29 01:08:45;;;;;;;16.13;5.23;;;;;;;;;;5009393;28;20088;-71
2022/05/29 01:11:28;;;;;;;19.90;6.00;;;;;;;;;;5006180;28;20465;-71
2022/05/29 01:14:05;;;;;;;17.43;5.40;;;;;;;;;;5017648;28;20029;-71
2022/05/29 01:16:40;;;;;;;15.07;5.10;;;;;;;;;;5009666;28;20037;-71
2022/05/29 01:19:14;;;;;;;23.20;5.73;;;;;;;;;;5015635;28;20613;-71
2022/05/29 01:21:51;;;;;;;17.10;5.60;;;;;;;;;;5016028;28;20025;-71
2022/05/29 01:24:55;;;;;;;23.20;5.97;;;;;;;;;;5015346;28;20108;-71
2022/05/29 01:27:20;;;;;;;22.67;6.20;;;;;;;;;;5014050;28;20049;-71
2022/05/29 01:29:53;;;;;;;18.33;6.20;;;;;;;;;;5012439;28;20540;-71
2022/05/29 01:32:34;;;;;;;20.73;6.43;;;;;;;;;;5010836;28;20045;-71
2022/05/29 01:35:03;;;;;;;20.17;5.70;;;;;;;;;;5011172;28;20041;-71
2022/05/29 01:37:29;;;;;;;23.60;6.90;;;;;;;;;;5012983;28;20276;-71
2022/05/29 01:40:00;;;;;;;17.50;6.37;;;;;;;;;;5013646;28;20038;-71
2022/05/29 01:42:25;;;;;;;21.38;7.15;;;;;;;;;;5009701;28;20449;-71
2022/05/29 01:44:55;;;;;;;19.77;6.53;;;;;;;;;;5012880;28;20073;-71
2022/05/29 01:47:23;;;;;;;21.53;6.77;;;;;;;;;;5010684;28;20525;-71
2022/05/29 01:49:50;;;;;;;19.10;6.27;;;;;;;;;;5012746;28;20120;-71
2022/05/29 01:52:15;;;;;;;21.87;7.37;;;;;;;;;;5013528;28;20036;-71
2022/05/29 01:54:44;;;;;;;26.57;7.40;;;;;;;;;;5016558;28;20025;-71
2022/05/29 01:57:30;;;;;;;21.50;8.50;;;;;;;;;;5015101;28;20414;-71
2022/05/29 02:00:21;;;;;;;20.00;7.43;;;;;;;;;;5019968;28;20026;-71
2022/05/29 02:03:07;;;;;;;24.73;7.53;;;;;;;;;;5017492;28;20030;-71
2022/05/29 02:05:43;;;;;;;22.63;7.17;;;;;;;;;;5018065;28;20068;-71
2022/05/29 02:08:13;;;;;;;18.37;6.80;;;;;;;;;;5018048;28;20489;-71
2022/05/29 02:10:51;;;;;;;21.33;7.30;;;;;;;;;;5018141;28;20033;-71
2022/05/29 02:13:16;;;;;;;23.23;7.90;;;;;;;;;;5017025;28;20057;-71
2022/05/29 02:15:52;;;;;;;21.90;6.97;;;;;;;;;;5017613;28;20466;-71
2022/05/29 02:18:26;;;;;;;21.47;7.83;;;;;;;;;;5018391;28;20024;-71
2022/05/29 02:20:53;;;;;;;26.30;8.20;;;;;;;;;;5019042;28;20120;-71
2022/05/29 02:23:38;;;;;;;31.10;8.37;;;;;;;;;;5017384;28;20025;-71
2022/05/29 02:26:04;;;;;;;20.47;7.97;;;;;;;;;;5018971;28;20026;-71
2022/05/29 02:28:35;;;;;;;22.20;8.00;;;;;;;;;;5017100;28;20059;-71
2022/05/29 02:31:14;;;;;;;23.93;7.33;;;;;;;;;;5015509;28;20474;-70
2022/05/29 02:33:50;;;;;;;19.93;7.77;;;;;;;;;;5020064;28;20130;-70
2022/05/29 02:36:36;;;;;;;21.00;7.67;;;;;;;;;;5020445;28;20036;-69
2022/05/29 02:39:23;;;;;;;17.33;6.60;;;;;;;;;;5017776;28;20036;-69
2022/05/29 02:42:01;;;;;;;21.47;7.03;;;;;;;;;;5019039;28;20021;-69
2022/05/29 02:44:37;;;;;;;21.83;7.33;;;;;;;;;;5017528;28;20021;-69
2022/05/29 02:47:15;;;;;;;23.93;7.47;;;;;;;;;;5019540;28;20027;-69
2022/05/29 02:49:45;;;;;;;17.70;6.87;;;;;;;;;;5018718;28;20401;-69
2022/05/29 02:52:15;;;;;;;19.17;6.93;;;;;;;;;;5016014;28;20501;-69
2022/05/29 02:54:41;;;;;;;22.70;7.70;;;;;;;;;;5018482;28;20025;-68
2022/05/29 02:57:06;;;;;;;24.37;8.67;;;;;;;;;;5018528;28;20036;-71
2022/05/29 02:59:37;;;;;;;26.60;8.07;;;;;;;;;;5018673;28;20052;-71
2022/05/29 03:02:17;;;;;;;23.50;7.70;;;;;;;;;;5017292;28;20033;-71
2022/05/29 03:04:54;;;;;;;23.30;7.30;;;;;;;;;;5017856;28;20163;-71
2022/05/29 03:07:20;;;;;;;21.30;7.40;;;;;;;;;;5018895;28;20072;-71
2022/05/29 03:10:00;;;;;;;19.53;6.70;;;;;;;;;;5017700;28;20124;-71
2022/05/29 03:12:44;;;;;;;26.53;6.97;;;;;;;;;;5015201;28;20025;-71
2022/05/29 03:15:23;;;;;;;28.20;7.57;;;;;;;;;;5016514;28;20091;-71
2022/05/29 03:17:54;;;;;;;22.03;7.47;;;;;;;;;;5016840;28;20466;-71
2022/05/29 03:20:22;;;;;;;23.27;6.28;;;;;;;;;;5017025;28;20031;-71
2022/05/29 03:22:47;;;;;;;22.17;7.33;;;;;;;;;;5016400;28;20045;-72
2022/05/29 03:25:12;;;;;;;23.80;7.00;;;;;;;;;;5018185;28;20386;-71
2022/05/29 03:27:48;;;;;;;19.50;7.13;;;;;;;;;;5016874;28;20156;-71
2022/05/29 03:30:32;;;;;;;21.57;7.23;;;;;;;;;;5018261;28;20076;-71
2022/05/29 03:32:58;;;;;;;21.27;6.47;;;;;;;;;;5018112;28;20036;-71
2022/05/29 03:35:26;;;;;;;19.57;6.57;;;;;;;;;;5016324;28;20044;-71
2022/05/29 03:37:51;;;;;;;20.43;6.53;;;;;;;;;;5017570;28;20029;-71
2022/05/29 03:40:17;;;;;;;22.63;6.83;;;;;;;;;;5015266;28;20047;-71
2022/05/29 03:42:42;;;;;;;19.47;6.13;;;;;;;;;;5018995;28;20037;-71
2022/05/29 03:45:08;;;;;;;19.13;6.00;;;;;;;;;;5016553;28;20060;-71
2022/05/29 03:47:35;;;;;;;17.33;4.83;;;;;;;;;;5018107;28;20439;-71
2022/05/29 03:50:00;;;;;;;19.50;6.07;;;;;;;;;;5017685;28;20754;-71
2022/05/29 03:52:25;;;;;;;18.93;5.30;;;;;;;;;;5012642;28;20040;-71
2022/05/29 03:54:53;;;;;;;17.00;4.97;;;;;;;;;;5018301;28;20358;-71
2022/05/29 03:57:19;;;;;;;21.23;5.73;;;;;;;;;;5017000;28;20115;-71
2022/05/29 03:59:44;;;;;;;14.23;4.57;;;;;;;;;;5018981;28;20131;-71
2022/05/29 04:02:09;;;;;;;22.73;6.20;;;;;;;;;;5014809;28;20514;-71
2022/05/29 04:04:34;;;;;;;16.23;4.97;;;;;;;;;;5015151;28;20060;-71
2022/05/29 04:07:00;;;;;;;16.37;4.97;;;;;;;;;;5017818;28;20029;-71
2022/05/29 04:12:13;;;;;;;17.43;5.13;;;;;;;;;;5016549;28;20345;-71
2022/05/29 04:14:39;;;;;;;16.40;4.73;;;;;;;;;;5015297;28;20129;-71
2022/05/29 04:17:05;;;;;;;17.13;4.90;;;;;;;;;;5015092;28;20026;-71
2022/05/29 04:19:30;;;;;;;18.23;5.20;;;;;;;;;;5017177;28;20028;-71
2022/05/29 04:21:56;;;;;;;16.87;5.13;;;;;;;;;;5014964;28;20116;-71
2022/05/29 04:24:21;;;;;;;14.50;4.67;;;;;;;;;;5016861;28;20469;-71
2022/05/29 04:26:47;;;;;;;20.03;6.10;;;;;;;;;;5014008;28;20030;-71
2022/05/29 04:29:12;;;;;;;20.63;5.77;;;;;;;;;;5012447;28;20429;-71
2022/05/29 04:31:37;;;;;;;16.10;5.33;;;;;;;;;;5015060;28;20083;-71
2022/05/29 04:34:03;;;;;;;16.03;5.93;;;;;;;;;;5014051;28;20417;-71
2022/05/29 04:36:28;;;;;;;20.20;6.13;;;;;;;;;;5018412;28;20387;-71
2022/05/29 04:38:55;;;;;;;17.73;5.20;;;;;;;;;;5017238;28;20025;-71
2022/05/29 04:41:25;;;;;;;17.27;6.70;;;;;;;;;;5014161;28;20033;-71
2022/05/29 04:43:50;;;;;;;20.10;6.13;;;;;;;;;;5014488;28;20033;-71
2022/05/29 04:46:15;;;;;;;16.30;5.07;;;;;;;;;;5015231;28;20119;-71
2022/05/29 04:48:41;;;;;;;19.47;5.30;;;;;;;;;;5012520;28;20121;-71
2022/05/29 04:51:06;;;;;;;20.63;5.50;;;;;;;;;;5015609;28;20264;-71
2022/05/29 04:53:32;;;;;;;16.50;5.40;;;;;;;;;;5015632;28;20371;-71
2022/05/29 04:55:57;;;;;;;16.13;5.20;;;;;;;;;;5016059;28;20367;-71
2022/05/29 04:58:24;;;;;;;21.83;5.73;;;;;;;;;;5013864;28;20037;-71
2022/05/29 05:00:49;;;;;;;14.13;5.33;;;;;;;;;;5013332;28;20039;-71
2022/05/29 05:03:14;;;;;;;13.43;5.80;;;;;;;;;;5015910;28;20057;-71
2022/05/29 05:05:40;;;;;;;15.87;5.83;;;;;;;;;;5015791;28;20037;-71
2022/05/29 05:08:05;;;;;;;18.27;5.63;;;;;;;;;;5017897;28;20037;-70
2022/05/29 05:10:30;;;;;;;12.53;4.97;;;;;;;;;;5015261;28;20560;-70
2022/05/29 05:12:55;;;;;;;14.77;4.57;;;;;;;;;;5015829;28;20026;-71
2022/05/29 05:15:21;;;;;;;12.50;4.90;;;;;;;;;;5015195;28;20022;-70
2022/05/29 05:17:46;;;;;;;20.60;5.70;;;;;;;;;;5014110;28;20340;-71
2022/05/29 05:20:12;;;;;;;20.67;6.03;;;;;;;;;;5017021;28;20119;-70
2022/05/29 05:22:37;;;;;;;17.83;5.00;;;;;;;;;;5015643;28;20332;-70
2022/05/29 05:25:02;;;;;;;15.73;4.23;;;;;;;;;;5017219;28;20021;-70
2022/05/29 05:27:28;;;;;;;18.10;5.30;;;;;;;;;;5021534;28;20040;-70
2022/05/29 05:29:53;;;;;;;14.57;4.63;;;;;;;;;;5020630;28;20029;-71
2022/05/29 05:32:18;;;;;;;21.90;6.03;;;;;;;;;;5016942;28;20385;-70
2022/05/29 05:34:43;;;;;;;17.57;5.40;;;;;;;;;;5016828;28;20026;-70
2022/05/29 05:37:10;;;;;;;17.63;5.70;;;;;;;;;;5020776;28;20036;-70
2022/05/29 05:39:35;;;;;;;20.03;5.00;;;;;;;;;;5016997;28;20376;-70
2022/05/29 05:42:00;;;;;;;15.97;5.00;;;;;;;;;;5017181;28;20029;-70
2022/05/29 05:44:25;;;;;;;14.73;4.97;;;;;;;;;;5018843;28;20409;-70
2022/05/29 05:46:55;;;;;;;15.77;4.83;;;;;;;;;;5017025;28;20488;-70
2022/05/29 05:49:21;;;;;;;16.40;5.30;;;;;;;;;;5019390;28;20034;-70
2022/05/29 05:51:47;;;;;;;14.83;5.87;;;;;;;;;;5018891;28;20026;-70
2022/05/29 05:54:12;;;;;;;13.93;6.27;;;;;;;;;;5017040;28;20037;-70
2022/05/29 05:56:42;;;;;;;13.40;5.17;;;;;;;;;;5018766;28;20410;-70
2022/05/29 05:59:07;;;;;;;17.97;5.20;;;;;;;;;;5019181;28;20104;-70
2022/05/29 06:01:32;;;;;;;14.07;4.77;;;;;;;;;;5019811;28;20031;-70
2022/05/29 06:03:57;;;;;;;12.67;4.40;;;;;;;;;;5020164;28;20034;-71
2022/05/29 06:06:22;;;;;;;14.53;5.57;;;;;;;;;;5018375;28;20384;-70
2022/05/29 06:08:48;;;;;;;20.77;6.07;;;;;;;;;;5019215;28;20440;-70
2022/05/29 06:11:13;;;;;;;17.07;5.30;;;;;;;;;;5015505;28;20512;-70
2022/05/29 06:13:38;;;;;;;15.53;5.03;;;;;;;;;;5019998;28;20473;-70
2022/05/29 06:16:04;;;;;;;11.50;4.20;;;;;;;;;;5016412;28;20529;-70
2022/05/29 06:18:29;;;;;;;11.87;3.90;;;;;;;;;;5019278;28;20513;-70
2022/05/29 06:20:58;;;;;;;12.67;4.67;;;;;;;;;;5018853;28;20033;-70
2022/05/29 06:23:24;;;;;;;14.43;4.73;;;;;;;;;;5017158;28;20108;-70
2022/05/29 06:25:49;;;;;;;19.53;4.93;;;;;;;;;;5015667;28;20356;-70
2022/05/29 06:28:14;;;;;;;17.40;5.07;;;;;;;;;;5019116;28;20021;-70
2022/05/29 06:30:40;;;;;;;18.17;4.77;;;;;;;;;;5016739;28;20056;-70
2022/05/29 06:33:05;;;;;;;14.33;4.67;;;;;;;;;;5016647;28;20100;-70
2022/05/29 06:35:31;;;;;;;15.37;4.70;;;;;;;;;;5018161;28;20126;-70
2022/05/29 06:37:56;;;;;;;14.87;4.70;;;;;;;;;;5016134;28;21283;-70
2022/05/29 06:40:22;;;;;;;23.70;4.70;;;;;;;;;;5015091;28;20539;-70
2022/05/29 06:42:47;;;;;;;12.70;4.10;;;;;;;;;;5018431;28;20022;-70
2022/05/29 06:45:12;;;;;;;17.23;4.73;;;;;;;;;;5015213;28;20025;-70
2022/05/29 06:47:38;;;;;;;15.10;4.57;;;;;;;;;;5017315;28;20033;-70
2022/05/29 06:50:04;;;;;;;15.13;5.00;;;;;;;;;;5016896;28;20088;-70
2022/05/29 06:52:31;;;;;;;20.83;4.80;;;;;;;;;;5018617;28;20470;-70
2022/05/29 06:54:56;;;;;;;17.43;5.03;;;;;;;;;;5019057;28;20022;-70
2022/05/29 06:57:37;;;;;;;20.63;5.57;;;;;;;;;;5016566;28;20021;-70
2022/05/29 07:08:40;;;;;;;21.47;5.40;;;;;;;;;;5015997;28;20413;-70
2022/05/29 07:11:07;;;;;;;14.60;4.77;;;;;;;;;;5017620;28;20018;-70
2022/05/29 07:13:33;;;;;;;18.27;5.17;;;;;;;;;;5016791;28;21449;-70
2022/05/29 07:15:58;;;;;;;16.33;5.23;;;;;;;;;;5013436;28;20022;-70
2022/05/29 07:18:23;;;;;;;23.17;6.00;;;;;;;;;;5017029;28;20021;-70
2022/05/29 07:20:49;;;;;;;17.77;4.73;;;;;;;;;;5013263;28;20034;-70
2022/05/29 07:23:16;;;;;;;16.63;4.40;;;;;;;;;;5017236;28;21031;-70
2022/05/29 07:25:42;;;;;;;13.63;3.63;;;;;;;;;;5018515;28;20033;-70
2022/05/29 07:28:08;;;;;;;19.27;4.37;;;;;;;;;;5013134;28;20375;-70
2022/05/29 07:30:34;;;;;;;19.70;3.57;;;;;;;;;;5018114;28;20461;-70
2022/05/29 07:33:00;;;;;;;14.13;3.53;;;;;;;;;;5016528;28;20084;-70
2022/05/29 07:35:25;;;;;;;13.93;3.17;;;;;;;;;;5015477;28;20112;-70
2022/05/29 07:37:51;;;;;;;13.03;3.13;;;;;;;;;;5018171;28;20043;-70
2022/05/29 07:40:16;;;;;;;14.10;3.10;;;;;;;;;;5019599;28;20025;-70
2022/05/29 07:45:25;;;;;;;12.53;2.70;;;;;;;;;;5018232;28;20512;-70
2022/05/29 07:47:50;;;;;;;14.43;2.60;;;;;;;;;;5018147;28;20057;-70
2022/05/29 07:50:17;;;;;;;11.40;2.60;;;;;;;;;;5015006;28;20080;-70
2022/05/29 07:52:44;;;;;;;10.63;2.90;;;;;;;;;;5015552;28;20087;-70
2022/05/29 07:55:09;;;;;;;12.03;2.33;;;;;;;;;;5017157;28;20104;-70
2022/05/29 07:57:35;;;;;;;11.87;2.70;;;;;;;;;;5014699;28;20120;-70
2022/05/29 08:00:00;;;;;;;11.27;2.40;;;;;;;;;;5011213;28;20034;-70
2022/05/29 08:02:25;;;;;;;15.13;2.67;;;;;;;;;;5015613;28;20044;-70
2022/05/29 08:04:50;;;;;;;13.83;2.60;;;;;;;;;;5013372;28;20464;-70
2022/05/29 08:07:17;;;;;;;9.93;2.37;;;;;;;;;;5014099;28;20451;-70
2022/05/29 08:09:43;;;;;;;15.27;2.40;;;;;;;;;;5013129;28;20030;-70
2022/05/29 08:12:08;;;;;;;13.90;3.13;;;;;;;;;;5013481;28;20037;-70
2022/05/29 08:14:34;;;;;;;11.10;2.33;;;;;;;;;;5015613;28;20025;-70
2022/05/29 08:16:59;;;;;;;10.23;2.73;;;;;;;;;;5014332;28;20053;-70
2022/05/29 08:19:24;;;;;;;11.53;2.70;;;;;;;;;;5016832;28;20030;-70
2022/05/29 08:21:50;;;;;;;16.33;2.90;;;;;;;;;;5013653;28;20037;-70
2022/05/29 08:32:46;;;;;;;13.30;2.97;;;;;;;;;;5026444;28;20037;-70
2022/05/29 08:35:12;;;;;;;17.77;3.13;;;;;;;;;;5027569;28;20031;-70
2022/05/29 08:37:37;;;;;;;13.23;2.30;;;;;;;;;;5023883;28;20044;-70
2022/05/29 08:40:03;;;;;;;12.13;2.13;;;;;;;;;;5018356;28;20017;-70
2022/05/29 08:42:29;;;;;;;10.17;2.10;;;;;;;;;;5018350;28;20155;-70
2022/05/29 08:44:55;;;;;;;9.20;2.30;;;;;;;;;;5008103;28;20034;-70
2022/05/29 08:47:25;;;;;;;9.57;2.10;;;;;;;;;;5010048;28;20031;-70
2022/05/29 08:49:50;;;;;;;9.45;1.83;;;;;;;;;;5012167;28;20025;-70
2022/05/29 08:52:25;;;;;;;8.25;2.22;;;;;;;;;;5014424;28;20033;-70
2022/05/29 08:55:00;;;;;;;8.98;2.03;;;;;;;;;;5010420;28;20562;-70
2022/05/29 08:57:44;;;;;;;11.88;1.85;;;;;;;;;;5013252;28;20117;-70
2022/05/29 09:00:16;;;;;;;6.78;1.50;;;;;;;;;;5014412;28;20025;-70
2022/05/29 09:02:47;;;;;;;13.45;2.00;;;;;;;;;;5012275;28;20459;-70
2022/05/29 09:05:18;;;;;;;12.55;2.15;;;;;;;;;;5018267;28;20037;-71
2022/05/29 09:07:45;;;;;;;11.48;2.55;;;;;;;;;;5022288;28;20018;-70
2022/05/29 09:10:13;;;;;;;11.10;2.00;;;;;;;;;;5026016;28;20633;-70
2022/05/29 09:12:44;;;;;;;8.35;2.35;;;;;;;;;;5014286;28;20042;-70
2022/05/29 09:15:28;;;;;;;9.27;2.05;;;;;;;;;;5012766;28;20036;-70
2022/05/29 09:17:54;;;;;;;9.57;2.10;;;;;;;;;;5015335;28;20032;-70
2022/05/29 09:20:26;;;;;;;10.55;2.15;;;;;;;;;;5022508;28;20454;-70
2022/05/29 09:22:51;;;;;;;9.13;1.60;;;;;;;;;;5021541;28;20052;-70
2022/05/29 09:25:36;;;;;;;10.57;1.97;;;;;;;;;;5012382;28;20026;-70
2022/05/29 09:28:05;;;;;;;7.35;1.80;;;;;;;;;;5016446;28;20383;-70
2022/05/29 09:30:31;;;;;;;9.85;1.70;;;;;;;;;;5017111;28;20022;-70
2022/05/29 09:32:58;;;;;;;11.55;2.63;;;;;;;;;;5013620;28;20474;-70
2022/05/29 09:35:26;;;;;;;5.55;1.63;;;;;;;;;;5017189;28;20615;-70
2022/05/29 09:38:27;;;;;;;9.32;1.83;;;;;;;;;;5016716;28;20017;-70
2022/05/29 09:41:05;;;;;;;7.40;1.40;;;;;;;;;;5009034;28;20033;-70
2022/05/29 09:43:30;;;;;;;5.57;1.25;;;;;;;;;;5012577;28;20417;-70
2022/05/29 09:45:55;;;;;;;7.32;1.45;;;;;;;;;;5026040;28;20044;-70
2022/05/29 09:51:12;;;;;;;5.77;1.53;;;;;;;;;;5017033;28;20041;-71
2022/05/29 09:53:48;;;;;;;3.70;1.03;;;;;;;;;;5024357;28;20022;-71
2022/05/29 09:56:14;;;;;;;4.83;1.20;;;;;;;;;;5030023;28;20029;-71
2022/05/29 09:58:50;;;;;;;6.70;1.33;;;;;;;;;;5023407;28;20059;-71
2022/05/29 10:01:28;;;;;;;6.63;1.30;;;;;;;;;;5017868;28;20685;-70
2022/05/29 10:03:55;;;;;;;4.23;1.30;;;;;;;;;;5027442;28;20025;-70
2022/05/29 10:06:26;;;;;;;4.87;1.40;;;;;;;;;;5015175;28;20033;-70
2022/05/29 10:08:53;;;;;;;6.40;1.50;;;;;;;;;;5023352;28;20079;-70
2022/05/29 10:11:29;;;;;;;5.47;1.60;;;;;;;;;;5018636;28;20112;-71
2022/05/29 10:13:55;;;;;;;5.03;1.52;;;;;;;;;;5023191;28;20029;-71
2022/05/29 10:16:37;;;;;;;5.05;1.45;;;;;;;;;;5019092;28;20398;-71
2022/05/29 10:19:08;;;;;;;6.97;1.60;;;;;;;;;;5026456;28;20041;-71
2022/05/29 10:21:38;;;;;;;8.25;1.70;;;;;;;;;;5020557;28;20030;-71
2022/05/29 10:24:10;;;;;;;4.72;1.20;;;;;;;;;;5018352;28;20547;-71
2022/05/29 10:26:36;;;;;;;5.28;1.30;;;;;;;;;;5031244;28;20021;-71
2022/05/29 10:29:12;;;;;;;6.90;1.42;;;;;;;;;;5030685;28;20568;-71
2022/05/29 10:31:38;;;;;;;6.10;1.40;;;;;;;;;;5016934;28;20049;-71
2022/05/29 10:34:07;;;;;;;6.43;1.30;;;;;;;;;;5029324;28;20018;-71
2022/05/29 10:36:32;;;;;;;10.32;1.70;;;;;;;;;;5022935;28;20010;-71
2022/05/29 10:39:24;;;;;;;11.27;1.90;;;;;;;;;;5015557;28;20088;-71
2022/05/29 10:41:50;;;;;;;6.30;1.30;;;;;;;;;;5020172;28;20057;-71
2022/05/29 10:44:34;;;;;;;7.32;1.50;;;;;;;;;;5020628;28;20038;-71
2022/05/29 10:47:05;;;;;;;6.55;1.25;;;;;;;;;;5022223;28;20030;-71
2022/05/29 10:49:37;;;;;;;7.65;1.63;;;;;;;;;;5024747;28;20032;-71
2022/05/29 10:52:02;;;;;;;8.68;1.88;;;;;;;;;;5016977;28;20030;-71
2022/05/29 10:54:39;;;;;;;9.00;2.25;;;;;;;;;;5018913;28;20022;-71
2022/05/29 10:57:07;;;;;;;7.22;1.10;;;;;;;;;;5012545;28;20022;-71
2022/05/29 10:59:32;;;;;;;4.50;1.13;;;;;;;;;;5026364;28;20035;-71
2022/05/29 11:04:51;;;;;;;3.78;1.08;;;;;;;;;;5021761;28;20036;-71
2022/05/29 11:07:35;;;;;;;7.07;1.70;;;;;;;;;;5025798;28;20439;-71
2022/05/29 11:10:06;;;;;;;4.85;1.17;;;;;;;;;;5018510;28;20128;-71
2022/05/29 11:12:37;;;;;;;9.20;1.30;;;;;;;;;;5012746;28;20025;-71
2022/05/29 11:15:18;;;;;;;8.60;1.60;;;;;;;;;;5023837;28;20465;-71
2022/05/29 11:18:06;;;;;;;5.82;1.50;;;;;;;;;;5020464;28;20385;-71
2022/05/29 11:20:31;;;;;;;5.28;1.27;;;;;;;;;;5024967;28;20076;-71
2022/05/29 11:23:03;;;;;;;5.07;1.08;;;;;;;;;;5027071;28;20662;-71
2022/05/29 11:25:34;;;;;;;5.60;1.33;;;;;;;;;;5019836;28;20064;-71
2022/05/29 11:28:08;;;;;;;5.57;1.35;;;;;;;;;;5029245;28;20030;-71
2022/05/29 11:30:51;;;;;;;7.63;1.40;;;;;;;;;;5026045;28;20107;-71
2022/05/29 11:33:34;;;;;;;5.70;1.20;;;;;;;;;;5013919;28;20030;-71
2022/05/29 11:36:00;;;;;;;4.90;1.30;;;;;;;;;;5016990;28;20025;-71
2022/05/29 11:38:34;;;;;;;5.13;1.48;;;;;;;;;;5021733;28;20477;-71
2022/05/29 11:41:03;;;;;;;7.47;1.50;;;;;;;;;;5014642;28;20034;-71
2022/05/29 11:43:48;;;;;;;8.75;1.45;;;;;;;;;;5018589;28;20033;-71
2022/05/29 11:52:02;;;;;;;9.13;2.10;;;;;;;;;;5017896;28;20084;-71
2022/05/29 11:54:30;;;;;;;7.93;1.80;;;;;;;;;;5019854;28;20688;-71
2022/05/29 11:57:03;;;;;;;5.03;1.20;;;;;;;;;;5011610;28;20131;-71
2022/05/29 11:59:47;;;;;;;5.22;1.17;;;;;;;;;;5013571;28;20036;-71
2022/05/29 12:02:15;;;;;;;5.60;1.35;;;;;;;;;;5019105;28;20089;-71
2022/05/29 12:04:46;;;;;;;6.13;1.10;;;;;;;;;;5016145;28;20033;-71
2022/05/29 12:07:15;;;;;;;4.80;1.00;;;;;;;;;;5020092;28;20030;-71
2022/05/29 12:09:42;;;;;;;3.88;1.00;;;;;;;;;;5022433;28;20041;-71
2022/05/29 12:12:12;;;;;;;6.80;1.10;;;;;;;;;;5019976;28;20041;-71
2022/05/29 12:14:42;;;;;;;4.87;1.00;;;;;;;;;;5026446;28;20053;-71
2022/05/29 12:17:25;;;;;;;7.30;1.17;;;;;;;;;;5026982;28;20083;-71
2022/05/29 12:19:53;;;;;;;5.43;1.13;;;;;;;;;;5016297;28;20486;-71
2022/05/29 12:22:22;;;;;;;4.93;1.30;;;;;;;;;;5012035;28;20038;-71
2022/05/29 12:24:50;;;;;;;6.30;1.33;;;;;;;;;;5008742;28;20052;-71
2022/05/29 12:27:16;;;;;;;11.53;1.80;;;;;;;;;;5011053;28;20114;-71
2022/05/29 12:29:46;;;;;;;6.23;1.30;;;;;;;;;;5026804;28;20030;-71
2022/05/29 12:32:18;;;;;;;7.90;1.60;;;;;;;;;;5024405;28;20621;-71
2022/05/29 12:34:47;;;;;;;4.77;1.40;;;;;;;;;;5025469;28;20021;-71
2022/05/29 12:37:25;;;;;;;8.30;1.30;;;;;;;;;;5015435;28;20538;-71
2022/05/29 12:40:14;;;;;;;7.37;1.40;;;;;;;;;;5013876;28;20096;-71
2022/05/29 12:42:59;;;;;;;6.03;1.57;;;;;;;;;;5009661;28;20106;-71
2022/05/29 12:45:40;;;;;;;9.87;1.63;;;;;;;;;;5016687;28;20406;-71
2022/05/29 12:48:05;;;;;;;6.10;1.37;;;;;;;;;;5029389;28;20037;-71
2022/05/29 12:50:51;;;;;;;7.13;1.60;;;;;;;;;;5020330;28;20482;-71
2022/05/29 12:53:16;;;;;;;7.80;1.40;;;;;;;;;;5017564;28;20033;-71
2022/05/29 12:55:55;;;;;;;5.37;1.20;;;;;;;;;;5016614;28;20493;-71
2022/05/29 12:58:20;;;;;;;6.13;1.47;;;;;;;;;;5015000;28;20397;-71
2022/05/29 13:00:48;;;;;;;5.67;1.30;;;;;;;;;;5017873;28;20038;-71
2022/05/29 13:03:26;;;;;;;5.23;1.10;;;;;;;;;;5019244;28;20025;-71
2022/05/29 13:06:09;;;;;;;5.23;1.20;;;;;;;;;;5015834;28;20541;-71
2022/05/29 13:08:46;;;;;;;5.03;1.25;;;;;;;;;;5025380;28;20039;-71
2022/05/29 13:11:15;;;;;;;5.55;1.80;;;;;;;;;;5018531;28;20032;-71
2022/05/29 13:13:43;;;;;;;4.95;1.25;;;;;;;;;;5017242;28;20112;-71
2022/05/29 13:16:38;;;;;;;6.63;1.20;;;;;;;;;;5015385;28;20437;-71
2022/05/29 13:19:19;;;;;;;6.03;1.45;;;;;;;;;;5012305;28;20432;-72
2022/05/29 13:21:53;;;;;;;7.70;1.38;;;;;;;;;;5021482;28;20108;-71
2022/05/29 13:24:19;;;;;;;6.93;1.60;;;;;;;;;;5022114;28;20041;-71
2022/05/29 13:26:44;;;;;;;3.67;0.90;;;;;;;;;;5017602;28;20029;-71
2022/05/29 13:29:29;;;;;;;5.82;1.30;;;;;;;;;;5012551;28;20168;-71
2022/05/29 13:32:13;;;;;;;3.72;1.20;;;;;;;;;;5018800;28;20026;-71
2022/05/29 13:34:46;;;;;;;3.58;0.90;;;;;;;;;;5023394;28;20456;-71
2022/05/29 13:37:38;;;;;;;3.38;0.80;;;;;;;;;;5016344;28;20034;-71
2022/05/29 13:40:06;;;;;;;;;;;;;;;;;;5027820;28;20482;-71
2022/05/29 13:42:31;;;;;;;3.63;0.95;;;;;;;;;;5019802;28;19920;-71
2022/05/29 13:44:57;;;;;;;6.72;1.20;;;;;;;;;;5018396;28;20077;-71
2022/05/29 13:47:23;;;;;;;5.18;1.15;;;;;;;;;;5020939;28;20025;-71
2022/05/29 13:49:50;;;;;;;6.70;1.48;;;;;;;;;;5021685;28;20032;-71
2022/05/29 13:52:19;;;;;;;6.43;1.60;;;;;;;;;;5025157;28;20417;-71
2022/05/29 13:54:59;;;;;;;8.63;1.75;;;;;;;;;;5018127;28;20084;-71
2022/05/29 14:03:58;;;;;;;7.07;1.55;;;;;;;;;;5018421;28;20032;-73
2022/05/29 14:06:16;;;;;;;3.53;1.25;;;;;;;;;;5019963;28;20032;-73
2022/05/29 14:08:49;;;;;;;2.77;1.00;;;;;;;;;;5023129;28;20100;-73
2022/05/29 14:11:15;;;;;;;5.27;1.20;;;;;;;;;;5020198;28;20474;-73
2022/05/29 14:13:43;;;;;;;4.83;1.13;;;;;;;;;;5016372;28;20029;-73
2022/05/29 14:16:29;;;;;;;5.23;1.37;;;;;;;;;;5026593;28;20029;-73
2022/05/29 14:19:00;;;;;;;6.83;1.40;;;;;;;;;;5030799;28;20105;-71
2022/05/29 14:21:25;;;;;;;9.70;1.85;;;;;;;;;;5018683;28;20030;-71
2022/05/29 14:23:57;;;;;;;12.03;1.93;;;;;;;;;;5018030;28;20037;-71
2022/05/29 14:26:22;;;;;;;10.37;1.87;;;;;;;;;;5020065;28;20041;-71
2022/05/29 14:28:47;;;;;;;8.30;2.13;;;;;;;;;;5028822;28;20033;-71
2022/05/29 14:31:31;;;;;;;8.27;2.40;;;;;;;;;;5023766;28;20109;-71
2022/05/29 14:34:22;;;;;;;8.10;2.00;;;;;;;;;;5032517;28;20013;-71
2022/05/29 14:37:06;;;;;;;9.03;2.13;;;;;;;;;;5020864;28;20435;-71
2022/05/29 14:39:35;;;;;;;7.90;2.00;;;;;;;;;;5021603;28;20490;-73
2022/05/29 14:42:12;;;;;;;9.50;2.00;;;;;;;;;;5031305;28;20063;-71
2022/05/29 14:44:40;;;;;;;8.47;2.30;;;;;;;;;;5032239;28;20030;-71
2022/05/29 14:47:09;;;;;;;7.80;2.10;;;;;;;;;;5027260;28;20021;-71
2022/05/29 14:49:37;;;;;;;8.70;2.30;;;;;;;;;;5023321;28;20017;-71
2022/05/29 14:52:23;;;;;;;9.47;3.60;;;;;;;;;;5019543;28;20025;-71
2022/05/29 14:54:52;;;;;;;10.50;3.20;;;;;;;;;;5031258;28;20030;-71
2022/05/29 14:57:21;;;;;;;8.23;2.10;;;;;;;;;;5031378;28;20026;-71
2022/05/29 14:59:46;;;;;;;6.47;2.00;;;;;;;;;;5021479;28;20027;-71
2022/05/29 15:02:20;;;;;;;7.87;2.30;;;;;;;;;;5031712;28;20401;-71
2022/05/29 15:04:47;;;;;;;10.80;3.00;;;;;;;;;;5030556;28;20021;-71
2022/05/29 15:12:43;;;;;;;9.97;2.20;;;;;;;;;;5028081;28;20496;-71
2022/05/29 15:15:11;;;;;;;11.77;2.20;;;;;;;;;;5028870;28;20033;-71
2022/05/29 15:17:36;;;;;;;10.93;1.63;;;;;;;;;;5021333;28;20033;-71
2022/05/29 15:25:35;;;;;;;9.37;2.13;;;;;;;;;;5020593;28;20492;-71
2022/05/29 15:28:05;;;;;;;10.20;2.33;;;;;;;;;;5018888;28;20285;-71
2022/05/29 15:30:31;;;;;;;11.83;2.63;;;;;;;;;;5026796;28;20021;-71
2022/05/29 15:33:01;;;;;;;10.27;2.40;;;;;;;;;;5029789;28;20025;-71
2022/05/29 15:35:29;;;;;;;13.67;2.60;;;;;;;;;;5021515;28;20560;-71
2022/05/29 15:38:07;;;;;;;12.70;2.90;;;;;;;;;;5029937;28;20060;-71
2022/05/29 15:40:44;;;;;;;15.53;2.97;;;;;;;;;;5030530;28;20437;-71
2022/05/29 15:43:10;;;;;;;12.83;2.43;;;;;;;;;;5025016;28;20052;-71